sensor_id;sensor_type;location;lat;lon;timestamp;pressure;altitude;pressure_sealevel;temperature;humidity
21588;BME280;10956;48.878;13.316;2023-04-10T00:00:29;94892.00;;;5.01;100.00
21588;BME280;10956;48.878;13.316;2023-04-10T00:02:56;94892.38;;;5.04;100.00
21588;BME280;10956;48.878;13.316;2023-04-10T00:05:22;94895.22;;;5.03;100.00
21588;BME280;10956;48.878;13.316;2023-04-10T00:07:47;94895.63;;;5.00;100.00
21588;BME280;10956;48.878;13.316;2023-04-10T00:10:13;94890.84;;;4.97;100.00
21588;BME280;10956;48.878;13.316;2023-04-10T00:12:38;94890.47;;;4.93;100.00
21588;BME280;10956;48.878;13.316;2023-04-10T00:15:04;94884.00;;;4.96;100.00
21588;BME280;10956;48.878;13.316;2023-04-10T00:17:29;94879.66;;;4.90;100.00
21588;BME280;10956;48.878;13.316;2023-04-10T00:19:55;94877.31;;;4.81;100.00
21588;BME280;10956;48.878;13.316;2023-04-10T00:22:20;94874.69;;;4.81;100.00
21588;BME280;10956;48.878;13.316;2023-04-10T00:24:45;94878.94;;;4.76;100.00
21588;BME280;10956;48.878;13.316;2023-04-10T00:27:11;94872.97;;;4.69;100.00
21588;BME280;10956;48.878;13.316;2023-04-10T00:29:36;94866.97;;;4.68;100.00
21588;BME280;10956;48.878;13.316;2023-04-10T00:32:02;94862.91;;;4.72;100.00
21588;BME280;10956;48.878;13.316;2023-04-10T00:34:27;94859.28;;;4.73;100.00
21588;BME280;10956;48.878;13.316;2023-04-10T00:36:52;94855.06;;;4.72;100.00
21588;BME280;10956;48.878;13.316;2023-04-10T00:39:18;94860.09;;;4.74;100.00
21588;BME280;10956;48.878;13.316;2023-04-10T00:41:43;94859.28;;;4.73;100.00
21588;BME280;10956;48.878;13.316;2023-04-10T00:44:09;94853.06;;;4.74;100.00
21588;BME280;10956;48.878;13.316;2023-04-10T00:46:36;94860.66;;;4.76;100.00
21588;BME280;10956;48.878;13.316;2023-04-10T00:49:02;94865.69;;;4.77;100.00
21588;BME280;10956;48.878;13.316;2023-04-10T00:51:28;94859.72;;;4.70;100.00
21588;BME280;10956;48.878;13.316;2023-04-10T00:53:53;94852.88;;;4.69;100.00
21588;BME280;10956;48.878;13.316;2023-04-10T00:56:20;94857.53;;;4.67;100.00
21588;BME280;10956;48.878;13.316;2023-04-10T00:58:47;94853.31;;;4.66;100.00
21588;BME280;10956;48.878;13.316;2023-04-10T01:01:13;94854.31;;;4.65;100.00
21588;BME280;10956;48.878;13.316;2023-04-10T01:03:38;94864.34;;;4.68;100.00
21588;BME280;10956;48.878;13.316;2023-04-10T01:17:30;94856.19;;;4.58;100.00
21588;BME280;10956;48.878;13.316;2023-04-10T01:20:12;94856.66;;;4.48;100.00
21588;BME280;10956;48.878;13.316;2023-04-10T01:22:57;94854.69;;;4.44;100.00
21588;BME280;10956;48.878;13.316;2023-04-10T01:25:40;94840.25;;;4.41;100.00
21588;BME280;10956;48.878;13.316;2023-04-10T01:31:07;94852.31;;;4.36;100.00
21588;BME280;10956;48.878;13.316;2023-04-10T01:33:40;94852.78;;;4.26;100.00
21588;BME280;10956;48.878;13.316;2023-04-10T01:36:10;94855.25;;;4.14;100.00
21588;BME280;10956;48.878;13.316;2023-04-10T01:38:39;94859.31;;;4.10;100.00
21588;BME280;10956;48.878;13.316;2023-04-10T01:41:07;94854.69;;;4.12;100.00
21588;BME280;10956;48.878;13.316;2023-04-10T01:43:33;94846.44;;;4.15;100.00
21588;BME280;10956;48.878;13.316;2023-04-10T01:46:00;94855.22;;;4.21;100.00
21588;BME280;10956;48.878;13.316;2023-04-10T01:48:27;94848.97;;;4.29;100.00
21588;BME280;10956;48.878;13.316;2023-04-10T01:50:53;94846.72;;;4.32;100.00
21588;BME280;10956;48.878;13.316;2023-04-10T01:53:20;94849.50;;;4.37;100.00
21588;BME280;10956;48.878;13.316;2023-04-10T01:55:47;94837.84;;;4.40;100.00
21588;BME280;10956;48.878;13.316;2023-04-10T01:58:14;94842.66;;;4.43;100.00
21588;BME280;10956;48.878;13.316;2023-04-10T02:00:40;94852.66;;;4.46;100.00
21588;BME280;10956;48.878;13.316;2023-04-10T02:03:38;94846.59;;;4.52;100.00
21588;BME280;10956;48.878;13.316;2023-04-10T02:08:59;94843.19;;;4.51;100.00
21588;BME280;10956;48.878;13.316;2023-04-10T02:11:40;94846.53;;;4.59;100.00
21588;BME280;10956;48.878;13.316;2023-04-10T02:14:10;94857.78;;;4.59;100.00
21588;BME280;10956;48.878;13.316;2023-04-10T02:16:39;94853.75;;;4.63;100.00
21588;BME280;10956;48.878;13.316;2023-04-10T02:19:05;94844.91;;;4.64;100.00
21588;BME280;10956;48.878;13.316;2023-04-10T02:21:32;94847.09;;;4.67;100.00
21588;BME280;10956;48.878;13.316;2023-04-10T02:23:58;94839.84;;;4.69;100.00
21588;BME280;10956;48.878;13.316;2023-04-10T02:26:24;94842.81;;;4.73;100.00
21588;BME280;10956;48.878;13.316;2023-04-10T02:28:50;94847.81;;;4.74;100.00
21588;BME280;10956;48.878;13.316;2023-04-10T02:31:15;94846.88;;;4.69;100.00
21588;BME280;10956;48.878;13.316;2023-04-10T02:33:41;94844.91;;;4.64;100.00
21588;BME280;10956;48.878;13.316;2023-04-10T02:36:08;94843.28;;;4.63;100.00
21588;BME280;10956;48.878;13.316;2023-04-10T02:38:33;94843.66;;;4.67;100.00
21588;BME280;10956;48.878;13.316;2023-04-10T02:40:58;94854.50;;;4.70;100.00
21588;BME280;10956;48.878;13.316;2023-04-10T02:43:24;94857.25;;;4.75;100.00
21588;BME280;10956;48.878;13.316;2023-04-10T02:45:50;94850.00;;;4.77;100.00
21588;BME280;10956;48.878;13.316;2023-04-10T02:48:16;94848.41;;;4.76;100.00
21588;BME280;10956;48.878;13.316;2023-04-10T02:50:41;94844.78;;;4.77;100.00
21588;BME280;10956;48.878;13.316;2023-04-10T02:53:12;94841.16;;;4.78;100.00
21588;BME280;10956;48.878;13.316;2023-04-10T02:55:38;94844.00;;;4.77;100.00
21588;BME280;10956;48.878;13.316;2023-04-10T02:58:04;94845.00;;;4.76;100.00
21588;BME280;10956;48.878;13.316;2023-04-10T03:00:29;94837.16;;;4.76;100.00
21588;BME280;10956;48.878;13.316;2023-04-10T03:02:55;94836.38;;;4.75;100.00
21588;BME280;10956;48.878;13.316;2023-04-10T03:05:20;94831.56;;;4.72;100.00
21588;BME280;10956;48.878;13.316;2023-04-10T03:07:46;94837.97;;;4.76;100.00
21588;BME280;10956;48.878;13.316;2023-04-10T03:10:11;94838.78;;;4.77;100.00
21588;BME280;10956;48.878;13.316;2023-04-10T03:12:37;94826.09;;;4.80;100.00
21588;BME280;10956;48.878;13.316;2023-04-10T03:15:02;94822.03;;;4.84;100.00
21588;BME280;10956;48.878;13.316;2023-04-10T03:17:28;94822.63;;;4.86;100.00
21588;BME280;10956;48.878;13.316;2023-04-10T03:19:53;94821.72;;;4.74;100.00
21588;BME280;10956;48.878;13.316;2023-04-10T03:22:18;94825.19;;;4.68;100.00
21588;BME280;10956;48.878;13.316;2023-04-10T03:24:44;94822.56;;;4.68;100.00
21588;BME280;10956;48.878;13.316;2023-04-10T03:27:09;94822.16;;;4.71;100.00
21588;BME280;10956;48.878;13.316;2023-04-10T03:29:35;94820.19;;;4.67;100.00
21588;BME280;10956;48.878;13.316;2023-04-10T03:32:00;94823.59;;;4.67;100.00
21588;BME280;10956;48.878;13.316;2023-04-10T03:34:26;94826.41;;;4.66;100.00
21588;BME280;10956;48.878;13.316;2023-04-10T03:36:51;94825.25;;;4.62;100.00
21588;BME280;10956;48.878;13.316;2023-04-10T03:39:17;94828.06;;;4.60;100.00
21588;BME280;10956;48.878;13.316;2023-04-10T03:41:42;94825.44;;;4.60;100.00
21588;BME280;10956;48.878;13.316;2023-04-10T03:44:07;94825.66;;;4.59;100.00
21588;BME280;10956;48.878;13.316;2023-04-10T03:46:33;94824.88;;;4.58;100.00
21588;BME280;10956;48.878;13.316;2023-04-10T03:48:58;94830.09;;;4.58;100.00
21588;BME280;10956;48.878;13.316;2023-04-10T03:51:24;94834.28;;;4.59;100.00
21588;BME280;10956;48.878;13.316;2023-04-10T03:53:49;94843.94;;;4.59;100.00
21588;BME280;10956;48.878;13.316;2023-04-10T03:56:15;94841.31;;;4.59;100.00
21588;BME280;10956;48.878;13.316;2023-04-10T03:58:41;94840.75;;;4.57;100.00
21588;BME280;10956;48.878;13.316;2023-04-10T04:01:06;94834.56;;;4.51;100.00
21588;BME280;10956;48.878;13.316;2023-04-10T04:03:32;94841.03;;;4.42;100.00
21588;BME280;10956;48.878;13.316;2023-04-10T04:05:57;94836.50;;;4.31;100.00
21588;BME280;10956;48.878;13.316;2023-04-10T04:08:23;94839.00;;;4.19;100.00
21588;BME280;10956;48.878;13.316;2023-04-10T04:10:48;94839.66;;;4.08;100.00
21588;BME280;10956;48.878;13.316;2023-04-10T04:13:13;94841.72;;;3.99;100.00
21588;BME280;10956;48.878;13.316;2023-04-10T04:15:39;94846.56;;;3.89;100.00
21588;BME280;10956;48.878;13.316;2023-04-10T04:18:05;94852.22;;;3.79;100.00
21588;BME280;10956;48.878;13.316;2023-04-10T04:20:30;94847.84;;;3.73;100.00
21588;BME280;10956;48.878;13.316;2023-04-10T04:22:55;94845.88;;;3.69;100.00
21588;BME280;10956;48.878;13.316;2023-04-10T04:25:21;94850.91;;;3.64;100.00
21588;BME280;10956;48.878;13.316;2023-04-10T04:27:46;94845.28;;;3.60;100.00
21588;BME280;10956;48.878;13.316;2023-04-10T04:30:12;94845.13;;;3.55;100.00
21588;BME280;10956;48.878;13.316;2023-04-10T04:32:37;94851.94;;;3.49;100.00
21588;BME280;10956;48.878;13.316;2023-04-10T04:35:03;94856.56;;;3.47;100.00
21588;BME280;10956;48.878;13.316;2023-04-10T04:37:28;94853.38;;;3.45;100.00
21588;BME280;10956;48.878;13.316;2023-04-10T04:39:54;94855.16;;;3.51;100.00
21588;BME280;10956;48.878;13.316;2023-04-10T04:42:19;94863.97;;;3.50;100.00
21588;BME280;10956;48.878;13.316;2023-04-10T04:44:45;94867.22;;;3.39;100.00
21588;BME280;10956;48.878;13.316;2023-04-10T04:47:10;94868.03;;;3.33;100.00
21588;BME280;10956;48.878;13.316;2023-04-10T04:49:35;94870.03;;;3.31;100.00
21588;BME280;10956;48.878;13.316;2023-04-10T04:52:01;94867.84;;;3.28;100.00
21588;BME280;10956;48.878;13.316;2023-04-10T04:54:26;94867.03;;;3.28;100.00
21588;BME280;10956;48.878;13.316;2023-04-10T04:56:52;94866.81;;;3.42;100.00
21588;BME280;10956;48.878;13.316;2023-04-10T04:59:17;94867.78;;;3.48;100.00
21588;BME280;10956;48.878;13.316;2023-04-10T05:01:43;94874.81;;;3.47;100.00
21588;BME280;10956;48.878;13.316;2023-04-10T05:04:08;94872.78;;;3.49;100.00
21588;BME280;10956;48.878;13.316;2023-04-10T05:06:33;94875.59;;;3.54;100.00
21588;BME280;10956;48.878;13.316;2023-04-10T05:08:59;94874.38;;;3.57;100.00
21588;BME280;10956;48.878;13.316;2023-04-10T05:11:25;94875.34;;;3.63;100.00
21588;BME280;10956;48.878;13.316;2023-04-10T05:13:50;94887.59;;;3.62;100.00
21588;BME280;10956;48.878;13.316;2023-04-10T05:16:15;94877.97;;;3.63;100.00
21588;BME280;10956;48.878;13.316;2023-04-10T05:18:41;94879.97;;;3.61;100.00
21588;BME280;10956;48.878;13.316;2023-04-10T05:21:06;94877.56;;;3.59;100.00
21588;BME280;10956;48.878;13.316;2023-04-10T05:23:32;94882.00;;;3.59;100.00
21588;BME280;10956;48.878;13.316;2023-04-10T05:25:57;94890.41;;;3.61;100.00
21588;BME280;10956;48.878;13.316;2023-04-10T05:28:23;94887.38;;;3.64;100.00
21588;BME280;10956;48.878;13.316;2023-04-10T05:30:48;94886.56;;;3.70;100.00
21588;BME280;10956;48.878;13.316;2023-04-10T05:33:14;94889.53;;;3.80;100.00
21588;BME280;10956;48.878;13.316;2023-04-10T05:35:39;94887.91;;;3.85;100.00
21588;BME280;10956;48.878;13.316;2023-04-10T05:38:05;94887.88;;;3.92;100.00
21588;BME280;10956;48.878;13.316;2023-04-10T05:40:30;94885.88;;;3.94;100.00
21588;BME280;10956;48.878;13.316;2023-04-10T05:42:55;94895.88;;;3.97;100.00
21588;BME280;10956;48.878;13.316;2023-04-10T05:45:21;94892.25;;;3.98;100.00
21588;BME280;10956;48.878;13.316;2023-04-10T05:47:47;94889.84;;;4.03;100.00
21588;BME280;10956;48.878;13.316;2023-04-10T05:50:12;94894.22;;;4.09;100.00
21588;BME280;10956;48.878;13.316;2023-04-10T05:52:37;94893.41;;;4.09;100.00
21588;BME280;10956;48.878;13.316;2023-04-10T05:55:03;94895.81;;;4.10;100.00
21588;BME280;10956;48.878;13.316;2023-04-10T05:57:29;94900.00;;;4.18;100.00
21588;BME280;10956;48.878;13.316;2023-04-10T05:59:55;94903.56;;;4.24;100.00
21588;BME280;10956;48.878;13.316;2023-04-10T06:02:20;94893.31;;;4.29;100.00
21588;BME280;10956;48.878;13.316;2023-04-10T06:04:46;94896.91;;;4.34;100.00
21588;BME280;10956;48.878;13.316;2023-04-10T06:07:11;94902.06;;;4.41;100.00
21588;BME280;10956;48.878;13.316;2023-04-10T06:09:37;94901.25;;;4.47;100.00
21588;BME280;10956;48.878;13.316;2023-04-10T06:12:02;94904.00;;;4.52;100.00
21588;BME280;10956;48.878;13.316;2023-04-10T06:14:27;94902.38;;;4.58;100.00
21588;BME280;10956;48.878;13.316;2023-04-10T06:16:53;94903.94;;;4.65;100.00
21588;BME280;10956;48.878;13.316;2023-04-10T06:19:18;94904.69;;;4.72;100.00
21588;BME280;10956;48.878;13.316;2023-04-10T06:21:43;94895.00;;;4.79;100.00
21588;BME280;10956;48.878;13.316;2023-04-10T06:24:09;94901.38;;;4.83;100.00
21588;BME280;10956;48.878;13.316;2023-04-10T06:26:36;94900.97;;;4.86;100.00
21588;BME280;10956;48.878;13.316;2023-04-10T06:29:01;94905.75;;;4.90;100.00
21588;BME280;10956;48.878;13.316;2023-04-10T06:31:27;94904.91;;;4.96;100.00
21588;BME280;10956;48.878;13.316;2023-04-10T06:33:52;94899.03;;;5.00;100.00
21588;BME280;10956;48.878;13.316;2023-04-10T06:36:18;94901.59;;;5.07;100.00
21588;BME280;10956;48.878;13.316;2023-04-10T06:38:43;94900.75;;;5.13;100.00
21588;BME280;10956;48.878;13.316;2023-04-10T06:41:08;94902.50;;;5.19;100.00
21588;BME280;10956;48.878;13.316;2023-04-10T06:43:35;94892.19;;;5.24;100.00
21588;BME280;10956;48.878;13.316;2023-04-10T06:46:02;94888.72;;;5.30;100.00
21588;BME280;10956;48.878;13.316;2023-04-10T06:48:29;94884.47;;;5.36;100.00
21588;BME280;10956;48.878;13.316;2023-04-10T06:50:54;94897.31;;;5.37;100.00
21588;BME280;10956;48.878;13.316;2023-04-10T06:53:20;94883.16;;;5.45;100.00
21588;BME280;10956;48.878;13.316;2023-04-10T06:55:45;94885.84;;;5.57;100.00
21588;BME280;10956;48.878;13.316;2023-04-10T06:58:11;94879.53;;;5.64;100.00
21588;BME280;10956;48.878;13.316;2023-04-10T07:00:36;94874.44;;;5.69;100.00
21588;BME280;10956;48.878;13.316;2023-04-10T07:03:02;94875.16;;;5.76;100.00
21588;BME280;10956;48.878;13.316;2023-04-10T07:05:28;94872.47;;;5.83;100.00
21588;BME280;10956;48.878;13.316;2023-04-10T07:07:53;94868.84;;;5.84;100.00
21588;BME280;10956;48.878;13.316;2023-04-10T07:10:18;94872.63;;;5.88;100.00
21588;BME280;10956;48.878;13.316;2023-04-10T07:12:44;94869.72;;;5.96;100.00
21588;BME280;10956;48.878;13.316;2023-04-10T07:15:10;94877.84;;;6.06;100.00
21588;BME280;10956;48.878;13.316;2023-04-10T07:17:36;94876.41;;;6.10;100.00
21588;BME280;10956;48.878;13.316;2023-04-10T07:20:02;94882.69;;;6.21;100.00
21588;BME280;10956;48.878;13.316;2023-04-10T07:22:28;94885.81;;;6.30;100.00
21588;BME280;10956;48.878;13.316;2023-04-10T07:24:53;94874.81;;;6.39;100.00
21588;BME280;10956;48.878;13.316;2023-04-10T07:27:19;94880.06;;;6.51;100.00
21588;BME280;10956;48.878;13.316;2023-04-10T07:29:45;94881.25;;;6.67;100.00
21588;BME280;10956;48.878;13.316;2023-04-10T07:32:10;94886.06;;;6.82;100.00
21588;BME280;10956;48.878;13.316;2023-04-10T07:34:36;94883.13;;;6.90;100.00
21588;BME280;10956;48.878;13.316;2023-04-10T07:37:01;94882.91;;;7.03;100.00
21588;BME280;10956;48.878;13.316;2023-04-10T07:39:27;94867.88;;;7.22;100.00
21588;BME280;10956;48.878;13.316;2023-04-10T07:41:53;94876.66;;;7.27;99.63
21588;BME280;10956;48.878;13.316;2023-04-10T07:44:19;94876.66;;;7.27;97.77
21588;BME280;10956;48.878;13.316;2023-04-10T07:46:44;94872.31;;;7.33;98.43
21588;BME280;10956;48.878;13.316;2023-04-10T07:49:10;94867.06;;;7.44;98.00
21588;BME280;10956;48.878;13.316;2023-04-10T07:51:36;94875.84;;;7.62;96.49
21588;BME280;10956;48.878;13.316;2023-04-10T07:54:04;94864.53;;;7.73;95.28
21588;BME280;10956;48.878;13.316;2023-04-10T07:56:30;94870.91;;;7.77;94.82
21588;BME280;10956;48.878;13.316;2023-04-10T07:58:58;94859.16;;;7.80;93.99
21588;BME280;10956;48.878;13.316;2023-04-10T08:01:23;94863.13;;;7.82;94.91
21588;BME280;10956;48.878;13.316;2023-04-10T08:03:48;94865.66;;;7.77;91.08
21588;BME280;10956;48.878;13.316;2023-04-10T08:06:14;94859.38;;;7.78;91.47
21588;BME280;10956;48.878;13.316;2023-04-10T08:08:41;94859.50;;;7.83;91.22
21588;BME280;10956;48.878;13.316;2023-04-10T08:13:54;94867.47;;;7.88;86.26
21588;BME280;10956;48.878;13.316;2023-04-10T08:16:25;94856.25;;;7.93;87.27
21588;BME280;10956;48.878;13.316;2023-04-10T08:18:55;94858.75;;;7.99;85.95
21588;BME280;10956;48.878;13.316;2023-04-10T08:21:22;94857.69;;;8.12;84.67
21588;BME280;10956;48.878;13.316;2023-04-10T08:23:56;94855.03;;;8.24;84.27
21588;BME280;10956;48.878;13.316;2023-04-10T08:26:22;94855.69;;;8.31;83.18
21588;BME280;10956;48.878;13.316;2023-04-10T08:28:50;94858.91;;;8.33;82.63
21588;BME280;10956;48.878;13.316;2023-04-10T08:31:17;94854.84;;;8.42;83.06
21588;BME280;10956;48.878;13.316;2023-04-10T08:33:42;94861.47;;;8.45;85.18
21588;BME280;10956;48.878;13.316;2023-04-10T08:36:08;94865.53;;;8.52;82.30
21588;BME280;10956;48.878;13.316;2023-04-10T08:38:34;94861.41;;;8.56;80.87
21588;BME280;10956;48.878;13.316;2023-04-10T08:40:59;94865.63;;;8.57;84.94
21588;BME280;10956;48.878;13.316;2023-04-10T08:43:25;94863.09;;;8.62;81.49
21588;BME280;10956;48.878;13.316;2023-04-10T08:45:51;94858.47;;;8.69;80.55
21588;BME280;10956;48.878;13.316;2023-04-10T08:48:18;94864.22;;;8.83;80.82
21588;BME280;10956;48.878;13.316;2023-04-10T08:50:45;94864.72;;;8.97;77.97
21588;BME280;10956;48.878;13.316;2023-04-10T08:53:12;94860.56;;;9.01;77.52
21588;BME280;10956;48.878;13.316;2023-04-10T08:55:40;94855.78;;;8.98;78.27
21588;BME280;10956;48.878;13.316;2023-04-10T08:58:07;94855.78;;;8.98;80.30
21588;BME280;10956;48.878;13.316;2023-04-10T09:00:33;94856.59;;;8.98;80.26
21588;BME280;10956;48.878;13.316;2023-04-10T09:02:59;94848.63;;;9.10;81.25
21588;BME280;10956;48.878;13.316;2023-04-10T09:05:28;94844.94;;;9.28;83.95
21588;BME280;10956;48.878;13.316;2023-04-10T09:07:54;94841.31;;;9.51;80.17
21588;BME280;10956;48.878;13.316;2023-04-10T09:10:19;94843.47;;;9.76;78.58
21588;BME280;10956;48.878;13.316;2023-04-10T09:12:46;94843.34;;;9.87;75.56
21588;BME280;10956;48.878;13.316;2023-04-10T09:15:12;94852.22;;;9.81;73.76
21588;BME280;10956;48.878;13.316;2023-04-10T09:17:59;94843.22;;;9.77;70.65
21588;BME280;10956;48.878;13.316;2023-04-10T09:20:27;94844.69;;;9.68;69.27
21588;BME280;10956;48.878;13.316;2023-04-10T09:22:53;94852.16;;;9.76;70.22
21588;BME280;10956;48.878;13.316;2023-04-10T09:28:03;94844.94;;;9.88;70.61
21588;BME280;10956;48.878;13.316;2023-04-10T09:30:36;94846.28;;;10.13;70.31
21588;BME280;10956;48.878;13.316;2023-04-10T09:33:02;94838.56;;;10.28;68.24
21588;BME280;10956;48.878;13.316;2023-04-10T09:35:36;94838.19;;;10.41;66.17
21588;BME280;10956;48.878;13.316;2023-04-10T09:38:15;94836.63;;;10.45;66.47
21588;BME280;10956;48.878;13.316;2023-04-10T09:40:41;94839.31;;;10.50;67.06
21588;BME280;10956;48.878;13.316;2023-04-10T09:43:24;94838.56;;;10.55;66.86
21588;BME280;10956;48.878;13.316;2023-04-10T09:48:16;94840.22;;;10.34;67.26
21588;BME280;10956;48.878;13.316;2023-04-10T09:50:41;94828.13;;;10.38;66.16
21588;BME280;10956;48.878;13.316;2023-04-10T09:53:18;94834.09;;;10.55;64.76
21588;BME280;10956;48.878;13.316;2023-04-10T09:55:45;94839.06;;;10.79;64.37
21588;BME280;10956;48.878;13.316;2023-04-10T09:58:11;94826.06;;;11.04;63.58
21588;BME280;10956;48.878;13.316;2023-04-10T10:00:47;94820.38;;;11.17;62.37
21588;BME280;10956;48.878;13.316;2023-04-10T10:03:15;94811.97;;;11.25;61.44
21588;BME280;10956;48.878;13.316;2023-04-10T10:05:46;94819.03;;;11.57;61.38
21588;BME280;10956;48.878;13.316;2023-04-10T10:08:13;94810.75;;;11.90;61.01
21588;BME280;10956;48.878;13.316;2023-04-10T10:10:50;94808.72;;;12.18;60.73
21588;BME280;10956;48.878;13.316;2023-04-10T10:13:23;94811.41;;;12.28;58.07
21588;BME280;10956;48.878;13.316;2023-04-10T10:15:57;94813.50;;;12.21;58.22
21588;BME280;10956;48.878;13.316;2023-04-10T10:18:39;94810.34;;;12.29;58.17
21588;BME280;10956;48.878;13.316;2023-04-10T10:21:07;94796.59;;;12.27;57.49
21588;BME280;10956;48.878;13.316;2023-04-10T10:23:33;94803.47;;;12.28;58.09
21588;BME280;10956;48.878;13.316;2023-04-10T10:26:04;94796.59;;;12.32;57.97
21588;BME280;10956;48.878;13.316;2023-04-10T10:28:31;94799.81;;;12.44;57.00
21588;BME280;10956;48.878;13.316;2023-04-10T10:30:58;94792.94;;;12.48;56.27
21588;BME280;10956;48.878;13.316;2023-04-10T10:33:25;94789.22;;;12.49;56.72
21588;BME280;10956;48.878;13.316;2023-04-10T10:35:57;94795.59;;;12.53;56.73
21588;BME280;10956;48.878;13.316;2023-04-10T10:38:25;94783.44;;;12.63;57.48
21588;BME280;10956;48.878;13.316;2023-04-10T10:40:56;94785.81;;;12.74;57.06
21588;BME280;10956;48.878;13.316;2023-04-10T10:46:16;94777.88;;;12.89;55.57
21588;BME280;10956;48.878;13.316;2023-04-10T10:48:57;94782.88;;;13.06;55.02
21588;BME280;10956;48.878;13.316;2023-04-10T10:51:41;94773.38;;;13.20;53.32
21588;BME280;10956;48.878;13.316;2023-04-10T10:54:26;94773.88;;;13.38;53.07
21588;BME280;10956;48.878;13.316;2023-04-10T10:56:51;94768.56;;;13.48;53.45
21588;BME280;10956;48.878;13.316;2023-04-10T10:59:17;94770.13;;;13.54;54.03
21588;BME280;10956;48.878;13.316;2023-04-10T11:02:18;94768.53;;;13.53;52.15
21588;BME280;10956;48.878;13.316;2023-04-10T11:04:45;94769.03;;;13.65;51.94
21588;BME280;10956;48.878;13.316;2023-04-10T11:07:12;94758.44;;;13.65;52.48
21588;BME280;10956;48.878;13.316;2023-04-10T11:09:48;94761.09;;;13.60;53.54
21588;BME280;10956;48.878;13.316;2023-04-10T11:12:24;94750.50;;;13.60;53.21
21588;BME280;10956;48.878;13.316;2023-04-10T11:14:57;94750.50;;;13.60;53.05
21588;BME280;10956;48.878;13.316;2023-04-10T11:17:46;94758.50;;;13.45;54.24
21588;BME280;10956;48.878;13.316;2023-04-10T11:20:12;94747.13;;;13.44;54.53
21588;BME280;10956;48.878;13.316;2023-04-10T11:23:09;94749.03;;;13.18;52.59
21588;BME280;10956;48.878;13.316;2023-04-10T11:28:35;94744.00;;;13.02;52.42
21588;BME280;10956;48.878;13.316;2023-04-10T11:31:15;94739.75;;;13.06;52.77
21588;BME280;10956;48.878;13.316;2023-04-10T11:33:44;94747.69;;;13.06;52.93
21588;BME280;10956;48.878;13.316;2023-04-10T11:36:13;94743.22;;;12.96;52.50
21588;BME280;10956;48.878;13.316;2023-04-10T11:38:54;94742.16;;;12.87;52.92
21588;BME280;10956;48.878;13.316;2023-04-10T11:41:22;94737.94;;;12.91;53.92
21588;BME280;10956;48.878;13.316;2023-04-10T11:43:50;94742.97;;;12.87;53.39
21588;BME280;10956;48.878;13.316;2023-04-10T11:46:16;94741.13;;;12.73;53.65
21588;BME280;10956;48.878;13.316;2023-04-10T11:48:42;94740.06;;;12.79;54.02
21588;BME280;10956;48.878;13.316;2023-04-10T11:51:12;94732.38;;;12.98;54.05
21588;BME280;10956;48.878;13.316;2023-04-10T11:53:39;94732.63;;;13.01;54.26
21588;BME280;10956;48.878;13.316;2023-04-10T11:56:05;94714.41;;;12.89;52.78
21588;BME280;10956;48.878;13.316;2023-04-10T11:58:38;94718.91;;;12.69;54.28
21588;BME280;10956;48.878;13.316;2023-04-10T12:01:04;94713.63;;;12.48;54.66
21588;BME280;10956;48.878;13.316;2023-04-10T12:03:36;94711.50;;;12.35;56.78
21588;BME280;10956;48.878;13.316;2023-04-10T12:06:03;94704.13;;;12.32;56.49
21588;BME280;10956;48.878;13.316;2023-04-10T12:08:41;94700.91;;;12.10;55.21
21588;BME280;10956;48.878;13.316;2023-04-10T12:11:10;94701.41;;;11.86;57.42
21588;BME280;10956;48.878;13.316;2023-04-10T12:13:40;94693.38;;;11.61;56.71
21588;BME280;10956;48.878;13.316;2023-04-10T12:16:09;94697.06;;;11.55;56.62
21588;BME280;10956;48.878;13.316;2023-04-10T12:18:35;94691.22;;;11.43;57.59
21588;BME280;10956;48.878;13.316;2023-04-10T12:21:02;94689.63;;;11.42;58.96
21588;BME280;10956;48.878;13.316;2023-04-10T12:23:29;94695.97;;;11.46;58.17
21588;BME280;10956;48.878;13.316;2023-04-10T12:26:14;94684.34;;;11.42;56.70
21588;BME280;10956;48.878;13.316;2023-04-10T12:28:49;94680.91;;;11.36;56.26
21588;BME280;10956;48.878;13.316;2023-04-10T12:31:15;94680.56;;;11.22;57.20
21588;BME280;10956;48.878;13.316;2023-04-10T12:33:45;94673.19;;;11.24;55.73
21588;BME280;10956;48.878;13.316;2023-04-10T12:36:24;94666.81;;;11.15;57.19
21588;BME280;10956;48.878;13.316;2023-04-10T12:38:57;94668.31;;;10.96;57.55
21588;BME280;10956;48.878;13.316;2023-04-10T12:41:24;94669.19;;;10.64;56.99
21588;BME280;10956;48.878;13.316;2023-04-10T12:43:51;94662.28;;;10.53;56.84
21588;BME280;10956;48.878;13.316;2023-04-10T12:46:26;94670.13;;;10.48;58.22
21588;BME280;10956;48.878;13.316;2023-04-10T12:48:52;94665.19;;;10.57;58.92
21588;BME280;10956;48.878;13.316;2023-04-10T12:51:17;94656.03;;;10.70;60.49
21588;BME280;10956;48.878;13.316;2023-04-10T12:53:44;94646.63;;;10.84;59.94
21588;BME280;10956;48.878;13.316;2023-04-10T12:56:09;94648.72;;;10.77;57.78
21588;BME280;10956;48.878;13.316;2023-04-10T12:58:38;94650.25;;;10.73;56.85
21588;BME280;10956;48.878;13.316;2023-04-10T13:01:05;94643.19;;;10.78;57.48
21588;BME280;10956;48.878;13.316;2023-04-10T13:03:35;94648.16;;;10.75;55.76
21588;BME280;10956;48.878;13.316;2023-04-10T13:06:02;94634.97;;;10.70;54.98
21588;BME280;10956;48.878;13.316;2023-04-10T13:08:29;94644.94;;;10.62;55.72
21588;BME280;10956;48.878;13.316;2023-04-10T13:10:59;94637.00;;;10.57;55.53
21588;BME280;10956;48.878;13.316;2023-04-10T13:13:28;94639.09;;;10.55;57.58
21588;BME280;10956;48.878;13.316;2023-04-10T13:15:55;94626.97;;;10.54;57.21
21588;BME280;10956;48.878;13.316;2023-04-10T13:18:20;94637.16;;;10.41;57.68
21588;BME280;10956;48.878;13.316;2023-04-10T13:20:46;94626.88;;;10.39;56.62
21588;BME280;10956;48.878;13.316;2023-04-10T13:23:11;94625.81;;;10.40;57.46